Geokinetics Inc (NASDAQOTH:GEOKQ)

CAPS Rating: 2 out of 5

The Company is a global provider of seismic data acquisition services in land, marsh and swamp and shallow water environments to the oil and natural gas industry.

Results 1 - 99 of 121 : 1 2 Next »
Top
Pick
Member Name Member
Rating
Start
Date
Call Time
Frame
Start
Price
Stock
Gain
Index
Gain
Score Commentary
artcorvelay < 20 5/14/2012 Outperform 1Y $1.32 -99.43% +44.48% -143.91 0 Comment
MoneyPlusSport < 20 1/25/2012 Underperform 5Y $2.00 -99.62% +47.82% +147.45 0 Comment
jdparksASI < 20 9/7/2011 Outperform 5Y $4.60 -99.84% +61.66% -161.50 0 Comment
GreenHillFarAway 29.15 8/22/2011 Outperform 5Y $3.99 -99.81% +71.46% -171.27 0 Comment
Rehydrogenated 32.32 3/29/2011 Outperform 5Y $8.68 -99.91% +47.99% -147.90 0 Comment
2011Fool 99.45 3/25/2011 Outperform NS $8.99 -99.92% +47.84% -147.76 0 Comment
LEGMAKER < 20 2/28/2011 Outperform 5Y $10.59 -99.93% +46.08% -146.01 0 Comment
hcve < 20 1/12/2011 Outperform 3W $9.41 -99.92% +51.49% -151.41 0 Comment
MagicMaggie < 20 12/7/2010 Outperform 5Y $9.35 -99.92% +56.55% -156.47 0 Comment
OberHund < 20 12/6/2010 Outperform 5Y $9.29 -99.92% +58.22% -158.14 0 Comment
tiger6667 < 20 12/1/2010 Outperform 5Y $8.51 -99.91% +61.42% -161.33 0 Comment
bullinnature 96.35 11/9/2009 11/8/2010 Outperform 3Y $12.72 -99.94% +79.74% -179.68 0 Comment
cletedinero < 20 10/18/2010 Outperform 5Y $7.31 -99.90% +64.29% -164.19 0 Comment
brilin 63.32 10/4/2010 Outperform 5Y $6.00 -99.88% +69.65% -169.53 0 Comment
smallandmidcap 97.07 8/10/2010 Underperform 5Y $4.51 -99.83% +73.19% +173.03 0 Comment
roth450 51.75 7/20/2010 Outperform NS $3.99 -99.81% +83.27% -183.08 0 Comment
EffinObama < 20 7/19/2010 Outperform 3Y $4.06 -99.82% +81.98% -181.80 0 Comment
thisyearslosers < 20 6/29/2010 Outperform 5Y $4.12 -99.82% +85.43% -185.24 0 Comment
startunderfive < 20 6/28/2010 Outperform 5Y $4.49 -99.83% +80.19% -180.02 0 Comment
institutionsdown 70.89 6/22/2010 Outperform 5Y $4.88 -99.85% +74.16% -174.00 0 Comment
obsoleteaccount < 20 6/21/2010 Outperform 5Y $4.91 -99.85% +74.61% -174.45 0 Comment
jroren 98.96 6/21/2010 Underperform 3M $5.36 -99.86% +71.53% +171.39 0 Comment
alexdavismith 93.15 6/21/2010 Underperform 5Y $5.36 -99.86% +71.53% +171.39 0 Comment
iddqkfyou < 20 5/11/2010 Outperform 5Y $6.30 -99.88% +68.62% -168.50 1 Comment
asitka 27.51 5/3/2010 Outperform 1Y $8.74 -99.91% +62.53% -162.45 0 Comment
Genomac 39.97 4/26/2010 Outperform 5Y $9.58 -99.92% +59.24% -159.16 0 Comment
HotDdogv2 < 20 4/26/2010 Outperform 5Y $9.58 -99.92% +59.24% -159.16 0 Comment
aliuce 33.32 4/23/2010 Outperform NS $9.53 -99.92% +59.99% -159.91 0 Comment
iamvoltron 23.30 4/22/2010 Outperform 5Y $8.47 -99.91% +61.95% -161.86 0 Comment
explicitonline 39.20 4/20/2010 Underperform 1Y $8.28 -99.91% +60.63% +160.54 0 Comment
markantonythe3rd 31.35 4/20/2010 Outperform 5Y $8.21 -99.91% +60.89% -160.80 0 Comment
dashark44 96.58 4/19/2010 Outperform 5Y $7.81 -99.90% +63.35% -163.26 0 Comment
Powderiver < 20 4/12/2010 Outperform 5Y $7.94 -99.91% +62.06% -161.96 0 Comment
manjux < 20 4/1/2010 Underperform 3M $7.32 -99.90% +64.67% +164.57 0 Comment
blue2fire < 20 3/22/2010 Outperform 5Y $7.39 -99.90% +68.27% -168.17 0 Comment
StThomasMoreEsq2 97.80 12/29/2009 2/19/2010 Outperform 3M $9.89 -99.92% +72.14% -172.06 0 Comment
HasOrHasNot 36.74 1/28/2010 Outperform 3Y $10.04 -99.93% +76.05% -175.98 0 Comment
FreeMortal 29.35 1/20/2010 Outperform 5Y $10.34 -99.93% +70.88% -170.80 0 Comment
StGiannaMolla 40.78 1/11/2010 Outperform 5Y $10.53 -99.93% +69.07% -169.00 0 Comment
Clockworker < 20 1/6/2010 Outperform 5Y $9.84 -99.92% +70.82% -170.74 0 Comment
TMFPlatoish 97.58 12/16/2009 Outperform 5Y $9.27 -99.92% +73.29% -173.21 0 Comment
chinneymartin 81.07 11/13/2009 Outperform 5Y $13.20 -99.94% +76.52% -176.46 0 Comment
wkcgx2 22.45 11/9/2009 Outperform 5Y $13.18 -99.94% +78.77% -178.71 0 Comment
outperformONLY < 20 10/19/2009 Outperform 5Y $19.49 -99.96% +77.89% -177.86 0 Comment
pennycruncher 58.97 10/19/2009 Outperform 5Y $19.49 -99.96% +77.89% -177.86 0 Comment
GIGManager < 20 10/8/2009 Outperform 3Y $19.24 -99.96% +81.73% -181.69 0 Comment
TotalStrange 97.57 8/12/2009 Outperform 1Y $14.58 -99.95% +93.51% -193.46 0 Comment
jddubya < 20 6/5/2009 Outperform 5Y $14.81 -99.95% +106.82% -206.77 0 Comment
TXmaverick < 20 6/2/2009 Underperform 3W $14.00 -99.95% +106.46% +206.40 1 Comment
marcet 71.77 5/28/2009 Outperform 5Y $13.26 -99.94% +115.66% -215.61 0 Comment
cwimbish 34.21 5/28/2009 Outperform 5Y $11.46 -99.93% +116.73% -216.67 1 Comment
theMovement 86.41 5/21/2009 Outperform 1Y $9.86 -99.92% +119.15% -219.07 0 Comment
unstoppablepeon < 20 10/27/2008 Underperform NS $6.01 -99.88% +130.15% +230.03 1 Comment
moonleg 23.22 10/22/2008 Underperform 1Y $6.45 -99.88% +113.47% +213.35 0 Comment
Chiownknee 81.20 10/20/2008 Outperform 5Y $8.28 -99.91% +106.59% -206.50 0 Comment
IWalker182 33.92 10/17/2008 Outperform NS $8.44 -99.91% +109.24% -209.15 0 Comment
wakoma < 20 10/8/2008 Outperform NS $12.80 -99.94% +104.11% -204.06 1 Comment
istilldontcare 96.49 9/18/2008 Outperform 5Y $17.34 -99.96% +71.18% -171.14 0 Comment
unotsomuch < 20 8/20/2008 Outperform 3Y $19.10 -99.96% +57.18% -157.14 0 Comment
ejtrains 27.10 8/11/2008 Outperform NS $20.00 -99.96% +54.62% -154.58 0 Comment
joetheboss 54.48 6/11/2008 Outperform 3Y $19.57 -99.96% +48.97% -148.93 1 Comment
Sqwii < 20 6/10/2008 Outperform 1Y $20.32 -99.96% +47.59% -147.55 1 Comment
floridabull33 67.38 5/22/2008 Outperform 3M $20.64 -99.96% +44.39% -144.36 0 Comment
GDragonsDad 47.83 5/7/2008 Outperform NS $19.04 -99.96% +42.62% -142.58 0 Comment
TexasGeoTech < 20 4/30/2008 Outperform 3M $19.04 -99.96% +43.85% -143.81 0 Comment
JCASS714 64.54 4/29/2008 Outperform 5Y $18.82 -99.96% +44.42% -144.38 0 Comment
tuckerjack 22.80 4/17/2008 Outperform 5Y $19.60 -99.96% +47.75% -147.71 0 Comment
greengal1 < 20 4/17/2008 Outperform 3Y $19.60 -99.96% +47.75% -147.71 1 Comment
ctnotebo 40.54 4/11/2008 Outperform 3Y $17.56 -99.96% +49.21% -149.17 0 Comment
louisianacoonie 23.95 3/31/2008 Outperform NS $17.95 -99.96% +52.38% -152.33 0 Comment
bengalmomof4 84.52 3/28/2008 Underperform 3M $17.78 -99.96% +51.31% +151.26 0 Comment
chad07gt 24.00 3/27/2008 Outperform NS $17.78 -99.96% +51.11% -151.06 0 Comment
MoltenTofu < 20 3/14/2008 Outperform NS $17.34 -99.96% +52.30% -152.25 0 Comment
AgendaPacific 43.03 3/14/2008 Outperform 3Y $17.34 -99.96% +52.30% -152.25 0 Comment
ToeInsider 43.23 3/10/2008 Outperform NS $16.26 -99.95% +55.78% -155.73 0 Comment
altitudeaddict 31.49 2/28/2008 Outperform 5Y $17.94 -99.96% +47.34% -147.30 0 Comment
tritterup 30.54 2/26/2008 Outperform NS $18.36 -99.96% +46.44% -146.40 0 Comment
arindamd < 20 2/26/2008 Outperform 1Y $17.79 -99.96% +47.37% -147.32 1 Comment
dmgchess 81.00 2/20/2008 Outperform 1Y $17.66 -99.96% +50.92% -150.87 0 Comment
aalvarma < 20 2/20/2008 Outperform 1Y $17.66 -99.96% +50.92% -150.87 0 Comment
thetoxman 80.69 2/14/2008 Outperform 1Y $17.31 -99.96% +47.65% -147.61 0 Comment
thatguy99 30.35 2/5/2008 Outperform 5Y $17.79 -99.96% +48.75% -148.71 0 Comment
mopomi 67.05 1/24/2008 Outperform 5Y $18.76 -99.96% +50.70% -150.66 0 Comment
ATWDLimited < 20 1/23/2008 Outperform NS $18.34 -99.96% +55.76% -155.71 0 Comment
financeman101 94.60 1/17/2008 Outperform NS $16.85 -99.96% +51.82% -151.78 0 Comment
evreeland 42.95 1/16/2008 Outperform 1Y $16.25 -99.95% +47.64% -147.59 0 Comment
Obyss 50.11 12/31/2007 Outperform 3W $19.14 -99.96% +37.47% -137.43 0 Comment
Kenster35OR 68.09 12/24/2007 Outperform 1Y $20.20 -99.96% +35.88% -135.84 0 Comment
StockRakedotcom < 20 12/13/2007 Outperform NS $22.40 -99.97% +37.06% -137.03 0 Comment
everything4less 35.95 12/13/2007 Outperform 1Y $22.40 -99.97% +37.06% -137.03 0 Comment
beachlokal < 20 12/12/2007 Outperform 5Y $23.10 -99.97% +35.98% -135.94 0 Comment
WavingSpices < 20 12/5/2007 Outperform NS $22.10 -99.97% +37.12% -137.08 0 Comment
SaltyGenes 55.73 11/27/2007 Outperform 5Y $22.14 -99.97% +43.42% -143.39 0 Comment
apper < 20 11/21/2007 Outperform 5Y $22.58 -99.97% +43.04% -143.00 0 Comment
ProjectJack < 20 11/5/2007 Outperform 1Y $19.90 -99.96% +35.24% -135.20 0 Comment
IntenseSpider 87.76 10/25/2007 Outperform NS $22.86 -99.97% +35.30% -135.27 0 Comment
tv5cents 97.22 10/23/2007 Outperform 5Y $22.00 -99.97% +34.22% -134.18 0 Comment
JR9901 82.20 10/22/2007 Outperform 5Y $21.85 -99.97% +36.56% -136.52 0 Comment
Garranova 87.63 10/22/2007 Outperform NS $21.85 -99.97% +36.56% -136.52 0 Comment
Results 1 - 99 of 121 : 1 2 Next »

Featured Broker Partners


Advertisement